createdAt,value
2019-05-14T00:00:33.189Z,46.75
2019-05-14T00:08:54.673Z,46.81
2019-05-14T00:17:15.812Z,47.03
2019-05-14T00:25:37.283Z,47.70
2019-05-14T00:33:58.747Z,47.92
2019-05-14T00:42:21.596Z,47.71
2019-05-14T00:50:43.028Z,48.04
2019-05-14T00:59:04.284Z,47.73
2019-05-14T01:07:25.753Z,48.09
2019-05-14T01:15:46.912Z,48.58
2019-05-14T01:24:08.340Z,49.61
2019-05-14T01:32:31.512Z,49.83
2019-05-14T01:40:53.267Z,50.41
2019-05-14T01:49:14.408Z,51.23
2019-05-14T01:57:35.631Z,50.82
2019-05-14T02:05:57.066Z,50.69
2019-05-14T02:14:18.528Z,51.23
2019-05-14T02:22:41.713Z,52.00
2019-05-14T02:31:03.945Z,51.91
2019-05-14T02:47:51.668Z,52.34
2019-05-14T02:56:13.149Z,52.47
2019-05-14T03:04:34.612Z,52.01
2019-05-14T03:12:58.845Z,52.20
2019-05-14T03:21:19.835Z,51.97
2019-05-14T03:29:41.537Z,52.52
2019-05-14T03:38:02.678Z,52.74
2019-05-14T03:46:43.714Z,52.73
2019-05-14T03:54:49.822Z,53.17
2019-05-14T04:03:11.454Z,52.90
2019-05-14T04:11:32.722Z,53.33
2019-05-14T04:19:54.162Z,53.18
2019-05-14T04:28:15.297Z,53.09
2019-05-14T04:36:39.168Z,53.56
2019-05-14T04:45:04.942Z,53.44
2019-05-14T04:53:22.213Z,53.50
2019-05-14T05:01:43.423Z,54.11
2019-05-14T05:10:04.544Z,54.06
2019-05-14T05:18:29.123Z,54.05
2019-05-14T05:26:48.791Z,54.27
2019-05-14T05:35:10.068Z,53.97
2019-05-14T05:43:31.494Z,54.20
2019-05-14T05:51:53.624Z,53.21
2019-05-14T06:00:15.111Z,53.85
2019-05-14T06:08:38.590Z,53.64
2019-05-14T06:16:59.707Z,55.45
2019-05-14T06:25:21.341Z,55.36
2019-05-14T06:33:42.628Z,51.98
2019-05-14T06:42:03.851Z,51.27
2019-05-14T06:50:28.341Z,51.24
2019-05-14T06:58:49.259Z,51.05
2019-05-14T07:07:10.665Z,50.76
2019-05-14T07:15:31.909Z,51.40
2019-05-14T07:23:53.123Z,50.16
2019-05-14T07:32:15.266Z,48.48
2019-05-14T07:40:38.822Z,47.92
2019-05-14T07:49:07.455Z,47.06
2019-05-14T07:57:22.547Z,47.58
2019-05-14T08:05:43.758Z,47.36
2019-05-14T08:14:04.989Z,46.81
2019-05-14T08:22:26.113Z,47.10
2019-05-14T08:30:49.118Z,45.50
2019-05-14T08:39:10.485Z,45.55
2019-05-14T08:47:31.741Z,45.24
2019-05-14T08:55:53.167Z,44.73
2019-05-14T09:04:15.154Z,44.92
2019-05-14T09:12:38.582Z,43.52
2019-05-14T09:20:59.562Z,42.03
2019-05-14T09:29:25.932Z,42.64
2019-05-14T09:37:44.897Z,41.14
2019-05-14T09:46:06.141Z,40.90
2019-05-14T09:54:28.748Z,40.62
2019-05-14T10:02:50.097Z,38.81
2019-05-14T10:11:11.234Z,38.04
2019-05-14T10:19:32.469Z,37.30
2019-05-14T10:27:53.593Z,37.11
2019-05-14T10:36:15.077Z,35.43
2019-05-14T10:44:38.679Z,34.53
2019-05-14T10:53:00.177Z,35.84
2019-05-14T11:01:22.751Z,35.72
2019-05-14T11:09:44.477Z,34.17
2019-05-14T11:18:05.613Z,33.61
2019-05-14T11:26:29.209Z,33.03
2019-05-14T11:34:49.893Z,32.56
2019-05-14T11:43:11.031Z,32.42
2019-05-14T11:51:59.351Z,32.10
2019-05-14T12:00:01.802Z,32.09
2019-05-14T12:08:22.965Z,31.26
2019-05-14T12:16:44.410Z,30.21
2019-05-14T12:25:08.032Z,26.44
2019-05-14T12:33:31.027Z,22.16
2019-05-14T12:41:52.084Z,18.64
2019-05-14T12:50:13.220Z,20.45
2019-05-14T12:58:34.533Z,18.75
2019-05-14T13:06:55.682Z,20.31
2019-05-14T13:15:20.071Z,20.58
2019-05-14T13:23:40.785Z,19.31
2019-05-14T13:32:03.647Z,16.96
2019-05-14T13:40:24.884Z,15.21
2019-05-14T13:48:49.785Z,16.15
2019-05-14T13:57:12.101Z,17.51
2019-05-14T14:05:32.971Z,16.29
2019-05-14T14:13:54.229Z,15.85
2019-05-14T14:22:15.394Z,17.02
2019-05-14T14:30:39.300Z,16.24
2019-05-14T14:38:59.916Z,16.36
2019-05-14T14:47:21.359Z,16.54
2019-05-14T14:55:42.834Z,16.96
2019-05-14T15:04:04.207Z,17.11
2019-05-14T15:12:25.729Z,17.29
2019-05-14T15:20:48.924Z,17.31
2019-05-14T15:29:10.338Z,17.81
2019-05-14T15:37:32.496Z,16.89
2019-05-14T15:45:53.633Z,17.05
2019-05-14T15:54:34.890Z,16.84
2019-05-14T16:02:39.166Z,16.78
2019-05-14T16:11:04.544Z,17.11
2019-05-14T16:19:24.002Z,17.01
2019-05-14T16:27:45.209Z,17.67
2019-05-14T16:36:08.667Z,19.09
2019-05-14T16:44:29.790Z,19.44
2019-05-14T16:52:50.910Z,20.08
2019-05-14T17:01:12.172Z,19.82
2019-05-14T17:09:33.413Z,21.67
2019-05-14T17:17:54.889Z,21.18
2019-05-14T17:26:16.286Z,21.75
2019-05-14T17:34:38.641Z,22.02
2019-05-14T17:43:00.406Z,21.70
2019-05-14T17:51:21.671Z,21.79
2019-05-14T17:59:43.176Z,21.67
2019-05-14T18:08:04.398Z,21.90
2019-05-14T18:16:28.400Z,22.66
2019-05-14T18:24:48.785Z,22.98
2019-05-14T18:33:09.893Z,23.62
2019-05-14T18:41:31.426Z,25.13
2019-05-14T18:49:52.628Z,25.80
2019-05-14T18:58:13.854Z,26.91
2019-05-14T19:06:35.105Z,27.95
2019-05-14T19:14:58.971Z,29.58
2019-05-14T19:23:19.552Z,32.10
2019-05-14T19:31:40.778Z,32.99
2019-05-14T19:40:02.320Z,33.94
2019-05-14T19:48:25.030Z,34.53
2019-05-14T19:56:55.525Z,35.04
2019-05-14T20:05:09.889Z,35.98
2019-05-14T20:13:31.170Z,35.75
2019-05-14T20:21:52.280Z,36.20
2019-05-14T20:30:13.767Z,36.89
2019-05-14T20:38:35.232Z,37.28
2019-05-14T20:46:58.336Z,37.93
2019-05-14T20:55:19.685Z,38.44
2019-05-14T21:03:43.883Z,38.83
2019-05-14T21:12:04.165Z,39.37
2019-05-14T21:20:25.475Z,39.58
2019-05-14T21:28:48.707Z,40.48
2019-05-14T21:37:10.183Z,41.67
2019-05-14T21:45:31.518Z,41.90
2019-05-14T21:53:52.665Z,42.05
2019-05-14T22:02:24.464Z,42.83
2019-05-14T22:10:39.867Z,42.82
2019-05-14T22:19:00.355Z,43.07
2019-05-14T22:27:21.861Z,43.27
2019-05-14T22:35:43.224Z,43.97
2019-05-14T22:44:04.873Z,44.36
2019-05-14T22:52:28.423Z,44.81
2019-05-14T23:01:02.740Z,44.84
2019-05-14T23:09:12.624Z,45.64
2019-05-14T23:17:34.172Z,45.84
2019-05-14T23:25:55.527Z,45.96
2019-05-14T23:34:18.903Z,46.09
2019-05-14T23:42:40.641Z,46.38
2019-05-14T23:51:01.939Z,46.84
2019-05-14T23:59:23.145Z,47.34
